createdAt,value
2022-10-18T00:00:50.610Z,1030.4
2022-10-18T00:06:22.299Z,1030.6
2022-10-18T00:11:50.402Z,1030.6
2022-10-18T00:17:15.422Z,1030.4
2022-10-18T00:23:01.392Z,1030.6
2022-10-18T00:28:27.796Z,1030.5
2022-10-18T00:34:12.925Z,1030.5
2022-10-18T00:39:42.846Z,1030.5
2022-10-18T00:45:05.451Z,1030.7
2022-10-18T00:50:29.967Z,1030.5
2022-10-18T00:56:09.594Z,1030.5
2022-10-18T01:01:49.331Z,1030.5
2022-10-18T01:07:31.966Z,1030.3
2022-10-18T01:12:55.280Z,1030.4
2022-10-18T01:18:40.859Z,1030.4
2022-10-18T01:23:55.399Z,1030.5
2022-10-18T01:29:32.824Z,1030.4
2022-10-18T01:35:05.056Z,1030.4
2022-10-18T01:40:49.450Z,1030.4
2022-10-18T01:46:09.876Z,1030.4
2022-10-18T01:51:52.151Z,1030.4
2022-10-18T01:57:17.152Z,1030.3
2022-10-18T02:02:43.688Z,1030.3
2022-10-18T02:08:28.823Z,1030.3
2022-10-18T02:14:12.680Z,1030.4
2022-10-18T02:19:32.545Z,1030.3
2022-10-18T02:25:19.050Z,1030.5
2022-10-18T02:30:28.790Z,1030.5
2022-10-18T02:36:05.745Z,1030.6
2022-10-18T02:41:35.330Z,1030.5
2022-10-18T02:47:16.217Z,1030.6
2022-10-18T02:53:03.561Z,1030.7
2022-10-18T02:58:40.306Z,1030.8
2022-10-18T03:03:56.902Z,1030.9
2022-10-18T03:09:30.655Z,1030.9
2022-10-18T03:15:10.133Z,1031.1
2022-10-18T03:20:40.611Z,1031
2022-10-18T03:26:01.265Z,1031.1
2022-10-18T03:31:51.024Z,1031
2022-10-18T03:37:18.495Z,1031.1
2022-10-18T03:42:57.759Z,1031.1
2022-10-18T03:48:29.572Z,1031.2
2022-10-18T03:53:54.634Z,1031.2
2022-10-18T03:59:35.276Z,1031.3
2022-10-18T04:04:58.277Z,1031.2
2022-10-18T04:10:32.485Z,1031.2
2022-10-18T04:16:23.985Z,1031.3
2022-10-18T04:21:49.638Z,1031.2
2022-10-18T04:27:33.286Z,1031.2
2022-10-18T04:32:54.245Z,1031.3
2022-10-18T04:38:12.693Z,1031.4
2022-10-18T04:44:03.747Z,1031.2
2022-10-18T04:49:44.856Z,1031.1
2022-10-18T04:55:19.218Z,1031.3
2022-10-18T05:00:26.591Z,1031.4
2022-10-18T05:06:18.381Z,1031.4
2022-10-18T05:11:59.613Z,1031.3
2022-10-18T05:17:06.141Z,1031.3
2022-10-18T05:22:49.042Z,1031.4
2022-10-18T05:28:40.714Z,1031.5
2022-10-18T05:33:51.515Z,1031.5
2022-10-18T05:39:30.106Z,1031.4
2022-10-18T05:44:51.271Z,1031.4
2022-10-18T05:50:44.903Z,1031.4
2022-10-18T05:56:04.944Z,1031.3
2022-10-18T06:01:51.426Z,1031.5
2022-10-18T06:07:26.715Z,1031.4
2022-10-18T06:12:50.422Z,1031.4
2022-10-18T06:18:24.265Z,1031.5
2022-10-18T06:23:59.248Z,1031.4
2022-10-18T06:29:40.430Z,1031.6
2022-10-18T06:34:55.205Z,1031.6
2022-10-18T06:40:39.009Z,1031.6
2022-10-18T06:46:11.764Z,1031.6
2022-10-18T06:51:46.286Z,1031.6
2022-10-18T06:57:03.864Z,1031.7
2022-10-18T07:02:40.369Z,1031.7
2022-10-18T07:08:13.311Z,1031.7
2022-10-18T07:13:53.081Z,1031.7
2022-10-18T07:19:35.706Z,1031.7
2022-10-18T07:25:01.403Z,1031.8
2022-10-18T07:30:34.112Z,1031.7
2022-10-18T07:36:06.828Z,1031.5
2022-10-18T07:41:43.571Z,1031.7
2022-10-18T07:47:12.978Z,1031.6
2022-10-18T07:52:44.401Z,1031.7
2022-10-18T07:58:21.653Z,1031.7
2022-10-18T08:04:08.430Z,1031.6
2022-10-18T08:09:29.637Z,1031.7
2022-10-18T08:15:02.815Z,1031.6
2022-10-18T08:20:39.405Z,1031.4
2022-10-18T08:26:11.725Z,1031.4
2022-10-18T08:32:01.715Z,1031.1
2022-10-18T08:37:36.622Z,1031.1
2022-10-18T08:42:49.607Z,1030.9
2022-10-18T08:48:19.030Z,1031.2
2022-10-18T08:54:11.724Z,1030.8
2022-10-18T08:59:51.277Z,1030.7
2022-10-18T09:05:16.853Z,1030.9
2022-10-18T09:10:44.533Z,1030.9
2022-10-18T09:16:35.629Z,1030.7
2022-10-18T09:22:13.375Z,1030.7
2022-10-18T09:27:29.675Z,1030.5
2022-10-18T09:33:19.045Z,1030.3
2022-10-18T09:38:41.632Z,1030.1
2022-10-18T09:44:18.423Z,1030.2
2022-10-18T09:49:44.297Z,1030.6
2022-10-18T09:55:39.986Z,1030.4
2022-10-18T10:01:12.557Z,1030.2
2022-10-18T10:06:36.511Z,1030.2
2022-10-18T10:12:18.424Z,1029.9
2022-10-18T10:17:45.335Z,1029.7
2022-10-18T10:23:30.620Z,1029.6
2022-10-18T10:29:09.851Z,1029.6
2022-10-18T10:34:23.466Z,1029.4
2022-10-18T10:40:17.190Z,1029.8
2022-10-18T10:45:27.358Z,1029.9
2022-10-18T10:51:16.670Z,1029.8
2022-10-18T10:56:44.279Z,1029.5
2022-10-18T11:02:30.289Z,1029.6
2022-10-18T11:07:49.393Z,1029.6
2022-10-18T11:13:21.081Z,1029.5
2022-10-18T11:19:05.441Z,1029.5
2022-10-18T11:24:29.630Z,1029.3
2022-10-18T11:30:21.448Z,1029.2
2022-10-18T11:35:34.717Z,1029.1
2022-10-18T11:41:37.908Z,1029.1
2022-10-18T11:46:51.731Z,1029.1
2022-10-18T11:52:37.265Z,1029.2
2022-10-18T11:58:10.790Z,1028.9
2022-10-18T12:03:41.635Z,1028.8
2022-10-18T12:09:28.443Z,1028.6
2022-10-18T12:14:49.933Z,1028.4
2022-10-18T12:20:19.118Z,1028.1
2022-10-18T12:26:13.748Z,1027.7
2022-10-18T12:31:31.382Z,1028
2022-10-18T12:37:05.139Z,1028.1
2022-10-18T12:42:47.741Z,1027.8
2022-10-18T12:48:37.086Z,1027.6
2022-10-18T12:54:17.542Z,1027.5
2022-10-18T12:59:28.216Z,1027.2
2022-10-18T13:05:16.348Z,1027.5
2022-10-18T13:10:46.663Z,1027.4
2022-10-18T13:16:36.437Z,1027.2
2022-10-18T13:22:25.020Z,1027.4
2022-10-18T13:27:51.380Z,1027.4
2022-10-18T13:33:24.596Z,1027.3
2022-10-18T13:38:59.802Z,1027.3
2022-10-18T13:44:28.396Z,1027.4
2022-10-18T13:50:16.378Z,1027.4
2022-10-18T13:55:40.917Z,1027.3
2022-10-18T14:01:27.939Z,1027.2
2022-10-18T14:06:47.179Z,1027.2
2022-10-18T14:12:28.483Z,1027.3
2022-10-18T14:18:09.407Z,1027.2
2022-10-18T14:23:39.075Z,1027.2
2022-10-18T14:29:11.597Z,1027.1
2022-10-18T14:35:14.595Z,1027
2022-10-18T14:40:35.322Z,1027.2
2022-10-18T14:46:13.684Z,1027
2022-10-18T14:51:29.113Z,1027
2022-10-18T14:57:02.868Z,1026.7
2022-10-18T15:02:54.672Z,1026.8
2022-10-18T15:08:13.367Z,1026.8
2022-10-18T15:13:57.257Z,1026.5
2022-10-18T15:19:30.759Z,1026.6
2022-10-18T15:25:24.332Z,1026.7
2022-10-18T15:30:47.116Z,1026.7
2022-10-18T15:36:25.767Z,1026.7
2022-10-18T15:41:50.390Z,1027
2022-10-18T15:47:16.949Z,1026.9
2022-10-18T15:53:15.638Z,1026.9
2022-10-18T15:58:27.474Z,1026.8
2022-10-18T16:04:23.189Z,1027.1
2022-10-18T16:09:43.415Z,1027
2022-10-18T16:15:33.190Z,1027
2022-10-18T16:20:42.374Z,1027.1
2022-10-18T16:26:29.027Z,1027.2
2022-10-18T16:32:00.309Z,1027.3
2022-10-18T16:37:33.685Z,1027.2
2022-10-18T16:43:19.804Z,1027.2
2022-10-18T16:48:44.652Z,1027.3
2022-10-18T16:54:06.307Z,1027.4
2022-10-18T17:00:02.016Z,1027.4
2022-10-18T17:05:32.996Z,1027.6
2022-10-18T17:10:47.275Z,1027.9
2022-10-18T17:16:35.772Z,1028
2022-10-18T17:21:57.805Z,1028.3
2022-10-18T17:27:41.194Z,1028.3
2022-10-18T17:33:25.304Z,1028.3
2022-10-18T17:39:00.040Z,1028.3
2022-10-18T17:44:22.585Z,1028.4
2022-10-18T17:49:49.416Z,1028.3
2022-10-18T17:55:37.005Z,1028.2
2022-10-18T18:01:05.520Z,1028.2
2022-10-18T18:06:39.195Z,1028.6
2022-10-18T18:12:22.779Z,1028.8
2022-10-18T18:18:04.804Z,1028.6
2022-10-18T18:23:31.597Z,1028.4
2022-10-18T18:28:50.416Z,1028.3
2022-10-18T18:34:48.555Z,1028.5
2022-10-18T18:40:22.280Z,1028.4
2022-10-18T18:45:45.357Z,1028.5
2022-10-18T18:51:29.786Z,1028.5
2022-10-18T18:57:01.232Z,1028.4
2022-10-18T19:02:13.705Z,1028.4
2022-10-18T19:07:50.960Z,1028.5
2022-10-18T19:13:21.967Z,1028.4
2022-10-18T19:19:01.466Z,1028.4
2022-10-18T19:24:33.422Z,1028.4
2022-10-18T19:30:22.687Z,1028.4
2022-10-18T19:35:58.297Z,1028.6
2022-10-18T19:41:32.574Z,1028.7
2022-10-18T19:47:00.171Z,1028.9
2022-10-18T19:52:32.452Z,1028.8
2022-10-18T19:58:07.872Z,1028.5
2022-10-18T20:03:38.565Z,1028.4
2022-10-18T20:09:05.252Z,1028.3
2022-10-18T20:14:57.874Z,1028.3
2022-10-18T20:20:19.683Z,1028.5
2022-10-18T20:25:45.556Z,1028.5
2022-10-18T20:31:41.612Z,1028.9
2022-10-18T20:37:03.832Z,1028.6
2022-10-18T20:42:51.289Z,1028.6
2022-10-18T20:48:16.357Z,1028.6
2022-10-18T20:53:41.619Z,1028.9
2022-10-18T20:59:13.127Z,1029
2022-10-18T21:05:02.199Z,1028.8
2022-10-18T21:10:39.174Z,1028.6
2022-10-18T21:16:12.870Z,1028.5
2022-10-18T21:21:32.169Z,1028.5
2022-10-18T21:27:12.144Z,1028.6
2022-10-18T21:32:51.408Z,1028.5
2022-10-18T21:38:17.227Z,1028.5
2022-10-18T21:43:41.364Z,1028.4
2022-10-18T21:49:18.247Z,1028.3
2022-10-18T21:54:52.618Z,1028.2
2022-10-18T22:00:21.063Z,1028.4
2022-10-18T22:06:18.190Z,1028.7
2022-10-18T22:11:33.876Z,1028.6
2022-10-18T22:17:08.974Z,1028.6
2022-10-18T22:22:47.134Z,1028.6
2022-10-18T22:28:28.582Z,1028.4
2022-10-18T22:34:02.517Z,1028.4
2022-10-18T22:39:17.157Z,1028.6
2022-10-18T22:44:53.131Z,1028.6
2022-10-18T22:50:23.828Z,1028.8
2022-10-18T22:56:17.487Z,1028.8
2022-10-18T23:01:47.909Z,1028.8
2022-10-18T23:07:19.368Z,1028.7
2022-10-18T23:12:48.233Z,1028.6
2022-10-18T23:18:30.292Z,1028.6
2022-10-18T23:23:56.404Z,1028.5
2022-10-18T23:29:26.655Z,1028.5
2022-10-18T23:35:12.891Z,1028.4
2022-10-18T23:40:44.129Z,1028.5
2022-10-18T23:46:05.496Z,1028.5
2022-10-18T23:51:37.545Z,1028.4
2022-10-18T23:57:07.221Z,1028.4
